Time;durP1;ratioP1;P1;durP2;ratioP2;P2;SDS_P1;SDS_P2;PMS_P1;PMS_P2;Temp;Humidity;BMP_temperature;BMP_pressure;BME280_temperature;BME280_humidity;BME280_pressure;Samples;Min_cycle;Max_cycle;Signal;HPM_P1;HPM_P2
2023/05/01 00:00:53;;;;;;;0.50;0.40;;;10.20;99.90;;;;;;5012326;28;20239;-79
2023/05/01 00:03:19;;;;;;;0.50;0.40;;;10.20;99.90;;;;;;5012119;28;20196;-79
2023/05/01 00:05:47;;;;;;;0.50;0.40;;;10.20;99.90;;;;;;5012279;28;20246;-78
2023/05/01 00:08:15;;;;;;;0.50;0.40;;;10.10;99.90;;;;;;5012384;28;20206;-78
2023/05/01 00:10:42;;;;;;;0.50;0.40;;;10.10;99.90;;;;;;5012083;28;20303;-78
2023/05/01 00:13:09;;;;;;;0.50;0.40;;;10.10;99.90;;;;;;5012079;28;20567;-79
2023/05/01 00:15:37;;;;;;;0.50;0.40;;;10.10;99.90;;;;;;5012064;28;20249;-78
2023/05/01 00:18:04;;;;;;;0.50;0.40;;;10.00;99.90;;;;;;5011927;28;20287;-78
2023/05/01 00:20:31;;;;;;;4.30;4.00;;;10.00;99.90;;;;;;5011503;28;20231;-79
2023/05/01 00:22:58;;;;;;;0.50;0.40;;;10.00;99.90;;;;;;5012018;28;20206;-78
2023/05/01 00:25:27;;;;;;;0.50;0.40;;;10.00;99.90;;;;;;5003885;28;20267;-74
2023/05/01 00:27:54;;;;;;;3.00;2.80;;;10.00;99.90;;;;;;5012022;28;20200;-78
2023/05/01 00:30:21;;;;;;;0.50;0.40;;;9.90;99.90;;;;;;5013069;28;20199;-77
2023/05/01 00:32:48;;;;;;;0.50;0.40;;;9.90;99.90;;;;;;5012583;28;20291;-78
2023/05/01 00:35:15;;;;;;;0.50;0.40;;;9.80;99.90;;;;;;5012834;28;20283;-79
2023/05/01 00:37:42;;;;;;;0.50;0.40;;;9.80;99.90;;;;;;5011576;28;20204;-78
2023/05/01 00:40:09;;;;;;;0.50;0.40;;;9.80;99.90;;;;;;5011800;28;20627;-79
2023/05/01 00:42:39;;;;;;;0.50;0.40;;;9.70;99.90;;;;;;5011869;28;20230;-79
2023/05/01 00:45:07;;;;;;;0.50;0.40;;;9.70;99.90;;;;;;5011602;28;20412;-79
2023/05/01 00:47:36;;;;;;;0.50;0.40;;;9.70;99.90;;;;;;5011646;28;20207;-78
2023/05/01 00:50:03;;;;;;;1.08;0.98;;;9.60;99.90;;;;;;5011353;28;20200;-78
2023/05/01 00:52:30;;;;;;;0.50;0.40;;;9.60;99.90;;;;;;5011597;28;20734;-79
2023/05/01 00:54:58;;;;;;;0.80;0.80;;;9.60;99.90;;;;;;5011622;28;20191;-77
2023/05/01 00:57:25;;;;;;;0.50;0.40;;;9.60;99.90;;;;;;5011727;28;20291;-79
2023/05/01 00:59:53;;;;;;;0.50;0.40;;;9.60;99.90;;;;;;5011722;28;20580;-79
2023/05/01 01:02:20;;;;;;;0.50;0.40;;;9.50;99.90;;;;;;5011159;28;20302;-78
2023/05/01 01:04:47;;;;;;;0.70;0.70;;;9.50;99.90;;;;;;5011383;28;20698;-78
2023/05/01 01:07:20;;;;;;;0.50;0.40;;;9.60;99.90;;;;;;5011461;28;20210;-78
2023/05/01 01:09:58;;;;;;;0.50;0.40;;;9.60;99.90;;;;;;5011606;28;20208;-79
2023/05/01 01:12:31;;;;;;;0.50;0.40;;;9.60;99.90;;;;;;5011429;28;20223;-78
2023/05/01 01:15:13;;;;;;;0.50;0.40;;;9.60;99.90;;;;;;5011224;28;20663;-79
2023/05/01 01:17:51;;;;;;;0.50;0.40;;;9.70;99.90;;;;;;5011317;28;20292;-77
2023/05/01 01:20:31;;;;;;;0.50;0.40;;;9.70;99.90;;;;;;5011335;28;20611;-76
2023/05/01 01:23:09;;;;;;;0.50;0.40;;;9.80;99.90;;;;;;5011526;28;20203;-77
2023/05/01 01:26:03;;;;;;;0.50;0.40;;;9.80;99.90;;;;;;5011448;28;20553;-78
2023/05/01 01:29:16;;;;;;;0.50;0.40;;;9.80;99.90;;;;;;5005879;28;20203;-74
2023/05/01 01:31:52;;;;;;;0.50;0.40;;;9.90;99.90;;;;;;5015283;28;20230;-78
2023/05/01 01:34:26;;;;;;;0.50;0.40;;;9.90;99.90;;;;;;5015019;28;20203;-78
2023/05/01 01:37:03;;;;;;;0.50;0.40;;;10.00;99.90;;;;;;5015594;28;20234;-80
2023/05/01 01:39:39;;;;;;;0.50;0.40;;;10.00;99.90;;;;;;5015737;28;20195;-78
2023/05/01 01:42:11;;;;;;;0.50;0.40;;;10.00;99.90;;;;;;5015668;28;20226;-80
2023/05/01 01:44:42;;;;;;;0.50;0.40;;;10.00;99.90;;;;;;5016341;28;20224;-79
2023/05/01 01:47:12;;;;;;;0.50;0.40;;;10.00;99.90;;;;;;5015062;28;20295;-79
2023/05/01 01:49:45;;;;;;;0.50;0.40;;;10.00;99.90;;;;;;5015898;28;20204;-79
2023/05/01 01:52:14;;;;;;;0.50;0.40;;;9.90;99.90;;;;;;5015351;28;20306;-79
2023/05/01 01:54:45;;;;;;;0.50;0.40;;;9.90;99.90;;;;;;5016028;28;20246;-79
2023/05/01 01:57:14;;;;;;;0.50;0.40;;;9.90;99.90;;;;;;5015532;28;20200;-79
2023/05/01 01:59:42;;;;;;;0.50;0.40;;;9.90;99.90;;;;;;5015697;28;20207;-79
2023/05/01 02:02:10;;;;;;;0.50;0.40;;;10.00;99.90;;;;;;5015443;28;20216;-80
2023/05/01 02:04:38;;;;;;;0.50;0.40;;;10.00;99.90;;;;;;5015492;28;20583;-78
2023/05/01 02:07:08;;;;;;;0.50;0.40;;;10.00;99.90;;;;;;5015432;28;20286;-78
2023/05/01 02:09:36;;;;;;;0.50;0.40;;;10.00;99.90;;;;;;5015655;28;20283;-79
2023/05/01 02:12:05;;;;;;;0.50;0.40;;;10.00;99.90;;;;;;5015225;28;20224;-79
2023/05/01 02:14:33;;;;;;;0.50;0.40;;;10.10;99.90;;;;;;5015532;28;20300;-79
2023/05/01 02:17:00;;;;;;;0.50;0.40;;;10.00;99.90;;;;;;5015172;28;20216;-80
2023/05/01 02:19:28;;;;;;;0.50;0.40;;;10.00;99.90;;;;;;5015031;28;20226;-79
2023/05/01 02:21:57;;;;;;;0.50;0.40;;;10.00;99.90;;;;;;5014895;28;20223;-78
2023/05/01 02:24:28;;;;;;;0.50;0.40;;;10.00;99.90;;;;;;5014773;28;20263;-76
2023/05/01 02:26:58;;;;;;;0.50;0.40;;;10.00;99.90;;;;;;5015467;28;20206;-79
2023/05/01 02:29:26;;;;;;;0.50;0.40;;;10.20;99.90;;;;;;5015191;28;20224;-78
2023/05/01 02:31:54;;;;;;;0.50;0.40;;;10.20;99.90;;;;;;5015026;28;20572;-80
2023/05/01 02:34:21;;;;;;;0.50;0.40;;;10.10;99.90;;;;;;5014756;28;20188;-79
2023/05/01 02:36:48;;;;;;;0.50;0.40;;;10.00;99.90;;;;;;5014807;28;20201;-80
2023/05/01 02:39:15;;;;;;;0.50;0.40;;;10.00;99.90;;;;;;5014323;28;20203;-80
2023/05/01 02:41:44;;;;;;;0.50;0.40;;;10.00;99.90;;;;;;5015199;28;20682;-79
2023/05/01 02:44:12;;;;;;;0.50;0.40;;;9.90;99.90;;;;;;5015506;28;20291;-80
2023/05/01 02:46:43;;;;;;;0.50;0.40;;;9.90;99.90;;;;;;5015282;28;20287;-78
2023/05/01 02:49:12;;;;;;;0.50;0.40;;;9.90;99.90;;;;;;5014612;28;20200;-77
2023/05/01 02:51:39;;;;;;;0.50;0.40;;;9.90;99.90;;;;;;5014612;28;20216;-79
2023/05/01 02:54:07;;;;;;;0.50;0.40;;;9.90;99.90;;;;;;5015030;28;20196;-79
2023/05/01 02:56:34;;;;;;;0.50;0.40;;;9.90;99.90;;;;;;5006526;28;20206;-80
2023/05/01 02:59:02;;;;;;;0.50;0.40;;;9.90;99.90;;;;;;5014359;28;20283;-79
2023/05/01 03:01:29;;;;;;;0.50;0.40;;;9.80;99.90;;;;;;5014160;28;20281;-79
2023/05/01 03:03:57;;;;;;;0.50;0.40;;;9.80;99.90;;;;;;5014388;28;20624;-79
2023/05/01 03:06:23;;;;;;;3.90;3.70;;;9.70;99.90;;;;;;5013802;28;20212;-79
2023/05/01 03:08:50;;;;;;;0.50;0.40;;;9.60;99.90;;;;;;5014419;28;20662;-79
2023/05/01 03:11:17;;;;;;;0.50;0.40;;;9.60;99.90;;;;;;5014280;28;20308;-79
2023/05/01 03:13:45;;;;;;;0.50;0.40;;;9.60;99.90;;;;;;5014389;28;20232;-80
2023/05/01 03:16:13;;;;;;;0.50;0.40;;;9.50;99.90;;;;;;5013713;28;20193;-80
2023/05/01 03:18:40;;;;;;;0.50;0.40;;;9.50;99.90;;;;;;5014117;28;20283;-79
2023/05/01 03:21:07;;;;;;;0.50;0.40;;;9.50;99.90;;;;;;5013887;28;20314;-79
2023/05/01 03:23:33;;;;;;;0.50;0.40;;;9.50;99.90;;;;;;5013769;28;20202;-79
2023/05/01 03:26:00;;;;;;;0.50;0.40;;;9.50;99.90;;;;;;5014186;28;20212;-79
2023/05/01 03:28:27;;;;;;;0.50;0.40;;;9.40;99.90;;;;;;5013487;28;20366;-79
2023/05/01 03:30:54;;;;;;;0.50;0.40;;;9.40;99.90;;;;;;5013915;28;20243;-79
2023/05/01 03:33:22;;;;;;;0.50;0.40;;;9.30;99.90;;;;;;5013388;28;20234;-80
2023/05/01 03:35:49;;;;;;;0.50;0.50;;;9.30;99.90;;;;;;5013636;28;20234;-80
2023/05/01 03:38:15;;;;;;;0.50;0.40;;;9.30;99.90;;;;;;5013919;28;20286;-79
2023/05/01 03:40:43;;;;;;;0.50;0.40;;;9.30;99.90;;;;;;5014313;28;20215;-79
2023/05/01 03:43:09;;;;;;;0.50;0.40;;;9.30;99.90;;;;;;5014316;28;20562;-79
2023/05/01 03:45:36;;;;;;;0.50;0.40;;;9.20;99.90;;;;;;5013815;28;20303;-80
2023/05/01 03:48:04;;;;;;;0.50;0.40;;;9.20;99.90;;;;;;5013606;28;20196;-79
2023/05/01 03:50:32;;;;;;;0.50;0.40;;;9.20;99.90;;;;;;5012676;28;20211;-80
2023/05/01 03:52:58;;;;;;;0.50;0.40;;;9.20;99.90;;;;;;5014219;28;20196;-81
2023/05/01 03:55:25;;;;;;;0.50;0.40;;;9.10;99.90;;;;;;5013767;28;20291;-78
2023/05/01 03:57:52;;;;;;;0.50;0.40;;;9.00;99.90;;;;;;5013663;28;20239;-79
2023/05/01 04:00:20;;;;;;;11.27;10.68;;;9.00;99.90;;;;;;5012964;28;20203;-77
2023/05/01 04:02:46;;;;;;;0.50;0.40;;;9.00;99.90;;;;;;5014202;28;20566;-81
2023/05/01 04:05:13;;;;;;;0.50;0.40;;;9.00;99.90;;;;;;5014118;28;20262;-81
2023/05/01 04:07:42;;;;;;;0.50;0.40;;;8.90;99.90;;;;;;5014600;28;20275;-81
2023/05/01 04:10:09;;;;;;;0.50;0.40;;;8.90;99.90;;;;;;5015081;28;20279;-81
2023/05/01 04:12:36;;;;;;;0.50;0.40;;;8.90;99.90;;;;;;5014523;28;20270;-81
2023/05/01 04:15:03;;;;;;;0.50;0.50;;;8.90;99.90;;;;;;5013867;28;20192;-81
2023/05/01 04:17:31;;;;;;;0.50;0.40;;;8.80;99.90;;;;;;5013708;28;20203;-78
2023/05/01 04:19:59;;;;;;;0.50;0.40;;;8.80;99.90;;;;;;5014047;28;20678;-81
2023/05/01 04:22:26;;;;;;;0.50;0.40;;;8.70;99.90;;;;;;5013951;28;20726;-82
2023/05/01 04:24:54;;;;;;;0.50;0.40;;;8.80;99.90;;;;;;5014296;28;20247;-80
2023/05/01 04:27:21;;;;;;;0.50;0.40;;;8.70;99.90;;;;;;5013842;28;20192;-81
2023/05/01 04:29:48;;;;;;;0.50;0.40;;;8.70;99.90;;;;;;5014212;28;20291;-79
2023/05/01 04:32:16;;;;;;;0.50;0.40;;;8.70;99.90;;;;;;5013964;28;20216;-81
2023/05/01 04:34:43;;;;;;;0.50;0.40;;;8.70;99.90;;;;;;5014469;28;20199;-81
2023/05/01 04:37:10;;;;;;;0.50;0.40;;;8.70;99.90;;;;;;5013390;28;20287;-80
2023/05/01 04:39:36;;;;;;;0.50;0.40;;;8.80;99.90;;;;;;5013703;28;20192;-81
2023/05/01 04:42:04;;;;;;;0.50;0.40;;;8.80;99.90;;;;;;5013854;28;20226;-82
2023/05/01 04:44:33;;;;;;;0.80;0.80;;;8.90;99.90;;;;;;5013535;28;20703;-81
2023/05/01 04:47:01;;;;;;;0.50;0.40;;;8.90;99.90;;;;;;5013498;28;20638;-81
2023/05/01 04:49:28;;;;;;;0.50;0.40;;;8.90;99.90;;;;;;5013474;28;20210;-81
2023/05/01 04:51:55;;;;;;;0.50;0.40;;;8.90;99.90;;;;;;5014031;28;20303;-81
2023/05/01 04:54:22;;;;;;;0.50;0.40;;;8.90;99.90;;;;;;5013854;28;20710;-81
2023/05/01 04:56:49;;;;;;;0.50;0.40;;;9.00;99.90;;;;;;5014003;28;20196;-81
2023/05/01 04:59:18;;;;;;;0.50;0.40;;;9.00;99.90;;;;;;5013682;28;20288;-78
2023/05/01 05:01:44;;;;;;;0.50;0.40;;;9.10;99.90;;;;;;5015222;28;20239;-81
2023/05/01 05:04:11;;;;;;;0.50;0.40;;;9.10;99.90;;;;;;5018235;28;20282;-81
2023/05/01 05:06:38;;;;;;;0.50;0.40;;;9.10;99.90;;;;;;5017280;28;20254;-80
2023/05/01 05:09:05;;;;;;;0.50;0.40;;;9.20;99.90;;;;;;5017370;28;20200;-81
2023/05/01 05:11:32;;;;;;;0.50;0.40;;;9.20;99.90;;;;;;5017675;28;20311;-81
2023/05/01 05:13:58;;;;;;;0.50;0.40;;;9.40;99.90;;;;;;5017284;28;20295;-79
2023/05/01 05:16:27;;;;;;;0.60;0.60;;;9.50;99.90;;;;;;5017279;28;20226;-81
2023/05/01 05:18:56;;;;;;;0.50;0.40;;;9.60;99.90;;;;;;5017499;28;20200;-81
2023/05/01 05:21:23;;;;;;;0.50;0.40;;;9.80;99.90;;;;;;5017142;28;20228;-79
2023/05/01 05:23:49;;;;;;;0.50;0.40;;;9.90;99.90;;;;;;5017492;28;20667;-82
2023/05/01 05:26:16;;;;;;;0.50;0.40;;;10.00;99.90;;;;;;5017319;28;20304;-79
2023/05/01 05:28:44;;;;;;;0.50;0.40;;;10.20;99.90;;;;;;5017421;28;20810;-79
2023/05/01 05:31:10;;;;;;;0.50;0.40;;;10.30;99.90;;;;;;5017569;28;20219;-81
2023/05/01 05:33:39;;;;;;;0.50;0.40;;;10.40;99.90;;;;;;5017169;28;20207;-80
2023/05/01 05:36:06;;;;;;;0.50;0.40;;;10.60;99.90;;;;;;5018070;28;20196;-81
2023/05/01 05:38:33;;;;;;;0.50;0.40;;;10.80;99.90;;;;;;5017978;28;20215;-77
2023/05/01 05:41:00;;;;;;;0.50;0.40;;;10.90;99.90;;;;;;5017071;28;20302;-81
2023/05/01 05:43:27;;;;;;;0.50;0.40;;;11.10;99.90;;;;;;5017020;28;20219;-81
2023/05/01 05:45:57;;;;;;;0.50;0.40;;;11.20;99.90;;;;;;5017410;28;20322;-79
2023/05/01 05:48:24;;;;;;;0.50;0.40;;;11.40;99.90;;;;;;5016779;28;20545;-81
2023/05/01 05:50:52;;;;;;;1.05;1.05;;;11.60;99.90;;;;;;5017079;28;20619;-81
2023/05/01 05:53:19;;;;;;;0.50;0.40;;;11.80;99.90;;;;;;5016944;28;20200;-80
2023/05/01 05:55:46;;;;;;;0.50;0.40;;;12.00;99.90;;;;;;5017039;28;20567;-81
2023/05/01 05:58:18;;;;;;;0.50;0.40;;;12.20;99.90;;;;;;5016813;28;20196;-80
2023/05/01 06:00:46;;;;;;;0.50;0.40;;;12.40;99.90;;;;;;5016961;28;20381;-81
2023/05/01 06:03:13;;;;;;;0.50;0.40;;;12.70;99.90;;;;;;5016961;28;20455;-81
2023/05/01 06:05:40;;;;;;;0.50;0.50;;;13.00;99.90;;;;;;5016756;28;20592;-81
2023/05/01 06:08:09;;;;;;;0.70;0.70;;;13.40;99.90;;;;;;5016878;28;20442;-81
2023/05/01 06:10:36;;;;;;;0.50;0.40;;;13.70;99.90;;;;;;5016380;28;20451;-82
2023/05/01 06:13:03;;;;;;;0.50;0.40;;;13.90;99.90;;;;;;5015913;28;20850;-81
2023/05/01 06:15:30;;;;;;;0.50;0.40;;;14.00;99.90;;;;;;5016304;28;20531;-79
2023/05/01 06:17:57;;;;;;;0.50;0.40;;;14.00;99.90;;;;;;5016619;28;20529;-81
2023/05/01 06:20:24;;;;;;;0.50;0.40;;;14.10;99.90;;;;;;5015946;28;20450;-81
2023/05/01 06:22:51;;;;;;;0.87;0.80;;;14.20;99.90;;;;;;5017280;28;20453;-81
2023/05/01 06:25:19;;;;;;;0.50;0.47;;;14.50;99.90;;;;;;5015900;28;20443;-80
2023/05/01 06:27:46;;;;;;;0.50;0.33;;;14.70;99.90;;;;;;5016355;28;20466;-80
2023/05/01 06:30:13;;;;;;;0.50;0.40;;;15.00;99.90;;;;;;5016604;28;20442;-82
2023/05/01 06:32:42;;;;;;;1.20;1.10;;;15.50;99.90;;;;;;5016668;28;20463;-81
2023/05/01 06:35:09;;;;;;;0.50;0.40;;;15.90;99.90;;;;;;5016561;28;20447;-80
2023/05/01 06:37:37;;;;;;;0.50;0.40;;;15.80;99.90;;;;;;5015746;28;20952;-79
2023/05/01 06:40:04;;;;;;;0.50;0.40;;;15.90;99.90;;;;;;5016240;28;20443;-81
2023/05/01 06:42:32;;;;;;;0.50;0.30;;;15.80;99.90;;;;;;5015912;28;21097;-80
2023/05/01 06:44:59;;;;;;;0.50;0.40;;;15.80;99.90;;;;;;5016453;28;20473;-82
2023/05/01 06:47:26;;;;;;;0.50;0.30;;;15.90;99.90;;;;;;5015684;28;20546;-81
2023/05/01 06:49:53;;;;;;;0.50;0.30;;;16.20;99.90;;;;;;5015918;28;20451;-81
2023/05/01 06:52:20;;;;;;;0.50;0.30;;;16.50;99.90;;;;;;5016493;28;20451;-81
2023/05/01 06:54:47;;;;;;;0.50;0.40;;;16.90;99.90;;;;;;5015963;28;21021;-80
2023/05/01 06:57:13;;;;;;;0.50;0.40;;;17.40;99.90;;;;;;5015855;28;20481;-81
2023/05/01 06:59:42;;;;;;;0.50;0.40;;;17.70;99.90;;;;;;5015597;28;20913;-78
2023/05/01 07:02:09;;;;;;;0.50;0.30;;;18.10;99.90;;;;;;5015900;28;20537;-81
2023/05/01 07:04:35;;;;;;;0.90;0.90;;;18.30;99.90;;;;;;5015450;28;20454;-79
2023/05/01 07:07:02;;;;;;;0.50;0.30;;;18.40;99.90;;;;;;5021051;28;20565;-81
2023/05/01 07:09:30;;;;;;;0.50;0.30;;;18.30;99.90;;;;;;5014976;28;20455;-81
2023/05/01 07:11:58;;;;;;;0.50;0.40;;;18.20;97.40;;;;;;5015531;28;20474;-81
2023/05/01 07:14:24;;;;;;;0.50;0.40;;;18.20;98.50;;;;;;5014843;28;20461;-80
2023/05/01 07:16:53;;;;;;;0.50;0.40;;;18.20;96.40;;;;;;5015611;28;20526;-81
2023/05/01 07:19:19;;;;;;;0.50;0.30;;;18.10;95.60;;;;;;5015264;28;20443;-81
2023/05/01 07:21:46;;;;;;;0.50;0.40;;;17.80;94.30;;;;;;5014900;28;20554;-80
2023/05/01 07:24:13;;;;;;;0.50;0.30;;;17.60;95.70;;;;;;5014959;28;20445;-80
2023/05/01 07:26:40;;;;;;;0.50;0.30;;;17.40;96.20;;;;;;5013858;28;20483;-80
2023/05/01 07:29:07;;;;;;;0.50;0.40;;;17.40;97.50;;;;;;5014715;28;20549;-80
2023/05/01 07:31:33;;;;;;;0.60;0.57;;;17.30;96.60;;;;;;5014498;28;20565;-80
2023/05/01 07:34:02;;;;;;;0.50;0.30;;;17.20;97.30;;;;;;5014499;28;20439;-80
2023/05/01 07:36:29;;;;;;;0.60;0.50;;;16.90;97.40;;;;;;5013984;28;20977;-75
2023/05/01 07:38:56;;;;;;;1.20;0.50;;;16.80;98.70;;;;;;5014419;28;20478;-80
2023/05/01 07:41:24;;;;;;;0.50;0.40;;;16.60;99.90;;;;;;5014009;28;20471;-76
2023/05/01 07:43:51;;;;;;;0.70;0.70;;;16.60;99.90;;;;;;5006398;28;20447;-80
2023/05/01 07:46:17;;;;;;;0.50;0.30;;;16.70;99.90;;;;;;5013961;28;20518;-80
2023/05/01 07:48:44;;;;;;;1.10;0.83;;;16.70;99.90;;;;;;5014016;28;20445;-80
2023/05/01 07:51:13;;;;;;;4.93;0.70;;;16.60;99.90;;;;;;5015636;28;20553;-80
2023/05/01 07:53:41;;;;;;;0.60;0.60;;;16.60;99.90;;;;;;5016683;28;20451;-80
2023/05/01 07:56:08;;;;;;;0.50;0.40;;;16.50;99.90;;;;;;5019969;28;20443;-80
2023/05/01 07:58:36;;;;;;;0.50;0.40;;;16.50;99.90;;;;;;5018256;28;20466;-81
2023/05/01 08:01:03;;;;;;;0.83;0.70;;;16.70;99.90;;;;;;5018822;28;20912;-80
2023/05/01 08:03:30;;;;;;;0.50;0.40;;;16.90;99.90;;;;;;5016131;28;20545;-81
2023/05/01 08:05:57;;;;;;;0.50;0.30;;;17.00;98.20;;;;;;5021219;28;20443;-80
2023/05/01 08:08:25;;;;;;;0.50;0.40;;;17.40;99.90;;;;;;5017576;28;20443;-81
2023/05/01 08:10:52;;;;;;;0.50;0.30;;;18.00;96.40;;;;;;5008645;28;20496;-81
2023/05/01 08:13:19;;;;;;;1.23;0.50;;;18.20;93.30;;;;;;5017669;28;20499;-80
2023/05/01 08:15:47;;;;;;;0.57;0.50;;;18.80;91.70;;;;;;5014894;28;20800;-80
2023/05/01 08:18:18;;;;;;;0.50;0.30;;;19.50;89.20;;;;;;5018075;28;20474;-79
2023/05/01 08:20:46;;;;;;;0.70;0.70;;;20.30;86.10;;;;;;5016364;28;20902;-81
2023/05/01 08:23:13;;;;;;;1.00;0.90;;;20.30;80.40;;;;;;5014937;28;20457;-80
2023/05/01 08:25:41;;;;;;;0.60;0.40;;;20.20;79.90;;;;;;5017593;28;20478;-79
2023/05/01 08:28:08;;;;;;;0.60;0.50;;;20.10;79.10;;;;;;5014104;28;20478;-80
2023/05/01 08:30:35;;;;;;;0.50;0.30;;;19.70;80.80;;;;;;5013346;28;20442;-79
2023/05/01 08:33:02;;;;;;;0.50;0.40;;;19.50;80.30;;;;;;5014555;28;20446;-80
2023/05/01 08:35:29;;;;;;;0.50;0.40;;;19.60;81.70;;;;;;5013681;28;20447;-77
2023/05/01 08:37:56;;;;;;;0.80;0.80;;;19.90;81.20;;;;;;5013589;28;20443;-80
2023/05/01 08:40:24;;;;;;;0.70;0.50;;;20.10;79.10;;;;;;5014176;28;20443;-81
2023/05/01 08:42:53;;;;;;;0.50;0.30;;;20.50;79.00;;;;;;5013672;28;20542;-80
2023/05/01 08:45:21;;;;;;;0.50;0.40;;;21.50;77.00;;;;;;5013621;28;20830;-81
2023/05/01 08:47:49;;;;;;;0.50;0.40;;;22.10;73.30;;;;;;5013918;28;23606;-81
2023/05/01 08:50:17;;;;;;;0.50;0.30;;;22.90;71.80;;;;;;5013892;28;20565;-81
2023/05/01 08:52:44;;;;;;;1.27;1.17;;;23.80;71.80;;;;;;5013482;28;20477;-81
2023/05/01 08:55:13;;;;;;;0.50;0.30;;;24.80;65.30;;;;;;5013330;28;20481;-80
2023/05/01 08:57:45;;;;;;;0.50;0.40;;;25.40;64.20;;;;;;5013295;28;20449;-81
2023/05/01 09:00:18;;;;;;;0.50;0.30;;;25.70;60.70;;;;;;5013642;28;20451;-80
2023/05/01 09:02:47;;;;;;;0.60;0.40;;;25.60;59.10;;;;;;5013063;28;20463;-81
2023/05/01 09:05:15;;;;;;;1.63;1.53;;;25.30;58.90;;;;;;5013361;28;20451;-81
2023/05/01 09:07:44;;;;;;;0.50;0.40;;;25.40;60.10;;;;;;5012695;28;20483;-81
2023/05/01 09:10:12;;;;;;;0.50;0.43;;;26.10;59.20;;;;;;5013281;28;20478;-81
2023/05/01 09:12:43;;;;;;;0.50;0.30;;;26.30;59.30;;;;;;5015037;28;20516;-81
2023/05/01 09:15:11;;;;;;;1.07;0.97;;;27.40;57.10;;;;;;5013101;28;20447;-81
2023/05/01 09:17:40;;;;;;;0.50;0.40;;;26.70;56.40;;;;;;5013342;28;20811;-81
2023/05/01 09:20:08;;;;;;;0.70;0.70;;;25.40;57.30;;;;;;5013502;28;20545;-80
2023/05/01 09:22:35;;;;;;;0.50;0.30;;;24.90;58.20;;;;;;5012713;28;20549;-80
2023/05/01 09:25:02;;;;;;;0.50;0.43;;;24.20;58.70;;;;;;5013187;28;20442;-81
2023/05/01 09:27:34;;;;;;;6.27;1.33;;;24.20;59.80;;;;;;5013223;28;20481;-81
2023/05/01 09:30:01;;;;;;;0.50;0.30;;;24.20;60.70;;;;;;5005977;28;20442;-81
2023/05/01 09:32:28;;;;;;;0.80;0.80;;;24.80;61.10;;;;;;5013224;28;20534;-80
2023/05/01 09:35:09;;;;;;;1.53;0.60;;;24.70;58.50;;;;;;5012778;28;20435;-80
2023/05/01 09:37:36;;;;;;;0.50;0.30;;;24.10;59.10;;;;;;5012283;28;20442;-80
2023/05/01 09:40:07;;;;;;;0.50;0.30;;;24.00;60.80;;;;;;5013411;28;20447;-80
2023/05/01 09:42:36;;;;;;;0.60;0.57;;;24.00;59.80;;;;;;5012820;28;20463;-80
2023/05/01 09:45:05;;;;;;;0.50;0.30;;;24.30;61.10;;;;;;5013150;28;20443;-82
2023/05/01 09:47:32;;;;;;;0.50;0.30;;;24.50;60.90;;;;;;5012669;28;20502;-80
2023/05/01 09:50:01;;;;;;;0.50;0.30;;;24.50;60.20;;;;;;5016384;28;20438;-79
2023/05/01 09:52:28;;;;;;;0.50;0.30;;;24.40;59.30;;;;;;5016600;28;20498;-81
2023/05/01 09:55:14;;;;;;;0.50;0.30;;;24.00;60.20;;;;;;5016531;28;20517;-80
2023/05/01 09:57:42;;;;;;;0.70;0.70;;;23.90;59.60;;;;;;5016181;28;20500;-80
2023/05/01 10:00:11;;;;;;;0.50;0.40;;;23.80;59.00;;;;;;5016327;28;20438;-79
2023/05/01 10:02:38;;;;;;;0.50;0.30;;;23.70;59.50;;;;;;5014615;28;20489;-80
2023/05/01 10:05:08;;;;;;;0.50;0.30;;;23.80;60.60;;;;;;5014849;28;20449;-79
2023/05/01 10:07:35;;;;;;;0.50;0.30;;;24.00;60.00;;;;;;5014661;28;20487;-78
2023/05/01 10:10:16;;;;;;;0.50;0.40;;;24.20;60.20;;;;;;5014792;28;20501;-80
2023/05/01 10:12:43;;;;;;;0.50;0.30;;;24.60;59.20;;;;;;5014496;28;20466;-80
2023/05/01 10:15:10;;;;;;;0.50;0.30;;;24.90;59.20;;;;;;5014759;28;20537;-80
2023/05/01 10:17:38;;;;;;;0.50;0.30;;;25.30;58.10;;;;;;5014214;28;20445;-80
2023/05/01 10:20:10;;;;;;;0.50;0.40;;;25.40;59.10;;;;;;5014667;28;20445;-80
2023/05/01 10:22:37;;;;;;;0.70;0.63;;;25.70;58.70;;;;;;5014199;28;20478;-81
2023/05/01 10:25:07;;;;;;;0.50;0.30;;;25.10;59.30;;;;;;5014943;28;20450;-80
2023/05/01 10:27:35;;;;;;;0.50;0.40;;;25.00;60.50;;;;;;5014881;28;20470;-75
2023/05/01 10:30:05;;;;;;;0.50;0.30;;;25.30;60.70;;;;;;5006693;28;20447;-79
2023/05/01 10:32:32;;;;;;;0.50;0.30;;;25.70;58.90;;;;;;5014564;28;20517;-80
2023/05/01 10:35:02;;;;;;;0.50;0.30;;;25.90;58.10;;;;;;5015166;28;20438;-80
2023/05/01 10:37:37;;;;;;;0.50;0.30;;;26.10;57.50;;;;;;5016664;28;20443;-81
2023/05/01 10:40:42;;;;;;;1.63;1.53;;;26.20;58.50;;;;;;5009623;28;20453;-80
2023/05/01 10:43:24;;;;;;;0.53;0.47;;;26.40;56.50;;;;;;5010238;28;20934;-80
2023/05/01 10:45:52;;;;;;;0.50;0.30;;;25.80;57.60;;;;;;5016857;28;20493;-79
2023/05/01 10:48:53;;;;;;;0.50;0.40;;;25.70;56.70;;;;;;5015451;28;20481;-79
2023/05/01 10:51:21;;;;;;;0.50;0.30;;;25.60;56.60;;;;;;5010081;28;20458;-81
2023/05/01 10:54:12;;;;;;;0.50;0.30;;;25.70;56.90;;;;;;5015147;28;20538;-80
2023/05/01 10:56:43;;;;;;;0.50;0.40;;;26.40;59.40;;;;;;5014863;28;20533;-80
2023/05/01 10:59:11;;;;;;;0.50;0.30;;;27.70;56.70;;;;;;5015019;28;20811;-80
2023/05/01 11:01:39;;;;;;;0.50;0.30;;;28.50;56.30;;;;;;5015102;28;20517;-80
2023/05/01 11:04:08;;;;;;;0.50;0.30;;;30.00;54.70;;;;;;5015421;28;20505;-80
2023/05/01 11:06:36;;;;;;;3.00;0.93;;;29.10;51.60;;;;;;5015252;28;20443;-80
2023/05/01 11:09:37;;;;;;;0.50;0.30;;;30.20;53.60;;;;;;5015467;28;20510;-81
2023/05/01 11:12:04;;;;;;;0.50;0.40;;;31.30;52.80;;;;;;5007916;28;20462;-81
2023/05/01 11:15:06;;;;;;;0.50;0.30;;;31.70;52.40;;;;;;5015580;28;20446;-80
2023/05/01 11:17:48;;;;;;;0.50;0.30;;;32.30;49.60;;;;;;5011316;28;20470;-77
2023/05/01 11:20:47;;;;;;;0.50;0.30;;;32.70;50.00;;;;;;5008576;28;20501;-81
2023/05/01 11:23:17;;;;;;;0.50;0.30;;;32.80;47.80;;;;;;5008711;28;20930;-80
2023/05/01 11:25:49;;;;;;;0.50;0.30;;;32.50;47.20;;;;;;5014338;28;20558;-80
2023/05/01 11:28:20;;;;;;;0.93;0.50;;;32.40;49.30;;;;;;5015242;28;20478;-79
2023/05/01 11:30:47;;;;;;;0.50;0.30;;;32.10;46.80;;;;;;5014487;28;20475;-79
2023/05/01 11:33:21;;;;;;;0.50;0.30;;;31.50;48.80;;;;;;5015676;28;20530;-80
2023/05/01 11:35:57;;;;;;;0.50;0.30;;;31.60;47.80;;;;;;5014370;28;20449;-80
2023/05/01 11:38:24;;;;;;;0.50;0.30;;;31.60;49.40;;;;;;5015312;28;20853;-81
2023/05/01 11:40:58;;;;;;;0.50;0.30;;;31.40;49.30;;;;;;5014480;28;20554;-81
2023/05/01 11:43:25;;;;;;;0.50;0.30;;;31.30;48.60;;;;;;5014647;28;20815;-80
2023/05/01 11:45:54;;;;;;;0.50;0.30;;;30.90;47.20;;;;;;5014909;28;20927;-79
2023/05/01 11:48:22;;;;;;;0.60;0.57;;;30.60;48.20;;;;;;5014844;28;20479;-80
2023/05/01 11:50:49;;;;;;;0.50;0.30;;;30.30;49.80;;;;;;5014139;28;20878;-79
2023/05/01 11:53:16;;;;;;;0.50;0.30;;;31.00;50.80;;;;;;5014674;28;20447;-80
2023/05/01 11:55:43;;;;;;;0.50;0.30;;;31.10;50.20;;;;;;5014346;28;20454;-82
2023/05/01 11:58:11;;;;;;;0.50;0.30;;;31.80;48.60;;;;;;5014245;28;20441;-81
2023/05/01 12:00:40;;;;;;;0.60;0.40;;;32.40;49.20;;;;;;5014225;28;20485;-81
2023/05/01 12:03:08;;;;;;;0.60;0.40;;;32.00;45.30;;;;;;5013947;28;20467;-79
2023/05/01 12:05:37;;;;;;;0.70;0.50;;;32.00;47.30;;;;;;5014319;28;20588;-80
2023/05/01 12:08:13;;;;;;;0.50;0.50;;;32.00;46.60;;;;;;5013938;28;20516;-79
2023/05/01 12:10:41;;;;;;;1.37;0.60;;;31.40;47.50;;;;;;5013781;28;20449;-80
2023/05/01 12:13:11;;;;;;;0.50;0.40;;;30.30;44.90;;;;;;5005533;28;20478;-80
2023/05/01 12:15:39;;;;;;;0.83;0.60;;;28.90;47.20;;;;;;5014395;28;20522;-79
2023/05/01 12:18:07;;;;;;;0.60;0.50;;;27.90;48.70;;;;;;5014200;28;20876;-79
2023/05/01 12:20:40;;;;;;;0.70;0.50;;;27.00;50.60;;;;;;5013371;28;20447;-78
2023/05/01 12:23:09;;;;;;;1.17;0.40;;;26.20;50.90;;;;;;5005787;28;20447;-78
2023/05/01 12:25:38;;;;;;;2.40;1.87;;;24.80;52.50;;;;;;5014286;28;20922;-80
2023/05/01 12:28:09;;;;;;;0.50;0.30;;;24.20;53.10;;;;;;5013580;28;20473;-80
2023/05/01 12:30:38;;;;;;;0.50;0.40;;;23.80;54.50;;;;;;5013485;28;20961;-80
2023/05/01 12:33:13;;;;;;;0.50;0.30;;;23.60;54.70;;;;;;5013769;28;20466;-80
2023/05/01 12:35:40;;;;;;;0.50;0.30;;;23.50;54.00;;;;;;5013357;28;20442;-81
2023/05/01 12:38:11;;;;;;;0.50;0.30;;;23.40;54.00;;;;;;5013858;28;20450;-79
2023/05/01 12:40:39;;;;;;;0.60;0.50;;;23.10;53.90;;;;;;5013991;28;20485;-80
2023/05/01 12:43:06;;;;;;;0.50;0.30;;;23.10;56.10;;;;;;5014021;28;20950;-78
2023/05/01 12:45:40;;;;;;;0.70;0.50;;;23.60;56.40;;;;;;5013842;28;20443;-78
2023/05/01 12:48:13;;;;;;;0.50;0.40;;;24.10;56.10;;;;;;5013700;28;20567;-80
2023/05/01 12:50:40;;;;;;;0.50;0.30;;;24.30;55.50;;;;;;5013979;28;20946;-80
2023/05/01 12:53:08;;;;;;;0.80;0.73;;;24.50;54.20;;;;;;5013306;28;20443;-80
2023/05/01 12:55:44;;;;;;;1.23;1.17;;;24.90;55.00;;;;;;5014267;28;20451;-80
2023/05/01 12:58:11;;;;;;;0.50;0.30;;;25.20;55.00;;;;;;5013631;28;20803;-80
2023/05/01 13:00:44;;;;;;;0.50;0.30;;;25.60;53.70;;;;;;5012967;28;20447;-79